Talpa, New Mexico
Current Conditions -  °F | °C
As of 3:15 AM on Wednesday 26 Nov 2014 (Local Time) from KSKX Reporting Station
Clear Clear  
Wind Chill: -15°   Ceiling: Unl
Heat Index: -9°   Visibility: 10mi
Dew Point: -14°   Wind: 9mph
Humidity: 68%   Direction: 10°N
Pressure: 30.29"   Gusts: NA
Location:  36.2692°N, 105.543°W
Report Text: KSKX 261015Z AUTO 01008KT 10SM CLR M09/M14 A3029 RMK AO1
Loading
Personal Weather Stations






























Interactive Weather Map New forecast layout! Learn more

10-Day Weather Forecast

Advertisements
Track Severe Weather on mobile